createdAt,value
2022-11-15T00:01:09.986Z,16.76
2022-11-15T00:03:36.886Z,16.76
2022-11-15T00:06:05.500Z,16.76
2022-11-15T00:08:33.282Z,16.73
2022-11-15T00:11:02.468Z,16.70
2022-11-15T00:13:30.637Z,16.68
2022-11-15T00:15:59.920Z,16.67
2022-11-15T00:18:27.521Z,16.65
2022-11-15T00:20:54.457Z,16.65
2022-11-15T00:23:21.425Z,16.62
2022-11-15T00:25:48.276Z,16.61
2022-11-15T00:28:15.100Z,16.61
2022-11-15T00:30:42.307Z,16.57
2022-11-15T00:33:10.120Z,16.57
2022-11-15T00:35:37.021Z,16.56
2022-11-15T00:38:03.925Z,16.56
2022-11-15T00:40:31.321Z,16.53
2022-11-15T00:42:58.560Z,16.51
2022-11-15T00:45:25.951Z,16.51
2022-11-15T00:47:53.593Z,16.43
2022-11-15T00:50:20.735Z,16.48
2022-11-15T00:52:47.604Z,16.47
2022-11-15T00:55:16.415Z,16.47
2022-11-15T00:57:43.304Z,16.45
2022-11-15T01:00:11.008Z,16.45
2022-11-15T01:02:37.953Z,16.44
2022-11-15T01:05:05.240Z,16.43
2022-11-15T01:07:32.242Z,16.42
2022-11-15T01:09:59.140Z,16.41
2022-11-15T01:12:25.988Z,16.39
2022-11-15T01:14:53.676Z,16.39
2022-11-15T01:17:20.892Z,16.37
2022-11-15T01:19:47.734Z,16.36
2022-11-15T01:22:14.584Z,16.34
2022-11-15T01:24:41.421Z,16.34
2022-11-15T01:27:08.603Z,16.33
2022-11-15T01:29:35.450Z,16.33
2022-11-15T01:32:02.489Z,16.31
2022-11-15T01:34:29.512Z,16.32
2022-11-15T01:36:56.363Z,16.30
2022-11-15T01:39:23.188Z,16.29
2022-11-15T01:41:50.049Z,16.29
2022-11-15T01:44:32.368Z,16.28
2022-11-15T01:47:02.523Z,16.22
2022-11-15T01:49:33.721Z,16.26
2022-11-15T01:52:02.322Z,16.22
2022-11-15T01:54:29.940Z,16.24
2022-11-15T01:57:05.554Z,16.24
2022-11-15T01:59:32.754Z,16.23
2022-11-15T02:01:59.744Z,16.23
2022-11-15T02:04:30.673Z,16.24
2022-11-15T02:06:57.624Z,16.23
2022-11-15T02:09:24.733Z,16.23
2022-11-15T02:11:54.987Z,16.23
2022-11-15T02:14:23.402Z,16.23
2022-11-15T02:16:56.743Z,16.20
2022-11-15T02:19:23.554Z,16.22
2022-11-15T02:22:03.346Z,16.20
2022-11-15T02:24:35.780Z,16.19
2022-11-15T02:27:33.157Z,16.12
2022-11-15T02:30:21.636Z,16.17
2022-11-15T02:32:54.162Z,16.17
2022-11-15T02:35:41.188Z,16.11
2022-11-15T02:38:22.067Z,16.16
2022-11-15T02:41:24.258Z,16.14
2022-11-15T02:43:59.994Z,16.15
2022-11-15T02:47:10.088Z,16.14
2022-11-15T02:49:39.018Z,16.13
2022-11-15T02:52:05.842Z,16.13
2022-11-15T02:54:34.841Z,16.12
2022-11-15T02:57:15.572Z,16.13
2022-11-15T02:59:45.107Z,16.12
2022-11-15T03:02:23.970Z,16.11
2022-11-15T03:05:03.352Z,16.11
2022-11-15T03:07:30.514Z,16.09
2022-11-15T03:10:10.399Z,16.09
2022-11-15T03:12:50.718Z,16.09
2022-11-15T03:15:25.888Z,16.10
2022-11-15T03:18:06.169Z,16.09
2022-11-15T03:20:34.292Z,16.09
2022-11-15T03:23:11.577Z,16.09
2022-11-15T03:25:44.778Z,16.09
2022-11-15T03:28:16.896Z,16.09
2022-11-15T03:30:45.362Z,16.08
2022-11-15T03:33:12.802Z,16.02
2022-11-15T03:35:44.546Z,16.07
2022-11-15T03:38:27.362Z,16.07
2022-11-15T03:41:01.450Z,16.07
2022-11-15T03:44:04.289Z,16.07
2022-11-15T03:46:40.839Z,16.07
2022-11-15T03:49:26.101Z,16.06
2022-11-15T03:51:53.134Z,16.06
2022-11-15T03:54:19.939Z,16.06
2022-11-15T03:56:46.768Z,16.07
2022-11-15T03:59:13.626Z,16.07
2022-11-15T04:01:40.559Z,16.06
2022-11-15T04:04:07.500Z,16.06
2022-11-15T04:06:35.314Z,16.05
2022-11-15T04:09:02.204Z,16.05
2022-11-15T04:11:29.002Z,16.05
2022-11-15T04:13:55.890Z,16.04
2022-11-15T04:16:22.724Z,16.06
2022-11-15T04:19:09.468Z,16.05
2022-11-15T04:21:55.039Z,16.04
2022-11-15T04:24:21.840Z,16.05
2022-11-15T04:26:48.734Z,16.01
2022-11-15T04:29:44.803Z,16.06
2022-11-15T04:32:11.666Z,16.05
2022-11-15T04:34:39.689Z,16.06
2022-11-15T04:37:12.905Z,16.05
2022-11-15T04:39:43.542Z,16.06
2022-11-15T04:42:11.209Z,16.05
2022-11-15T04:44:38.151Z,16.05
2022-11-15T04:47:05.667Z,16.04
2022-11-15T04:49:32.633Z,15.97
2022-11-15T04:51:59.612Z,16.03
2022-11-15T04:54:26.463Z,16.02
2022-11-15T04:56:53.253Z,16.02
2022-11-15T04:59:20.165Z,16.02
2022-11-15T05:01:46.998Z,16.02
2022-11-15T05:04:20.220Z,16.02
2022-11-15T05:06:52.172Z,16.03
2022-11-15T05:09:20.828Z,16.02
2022-11-15T05:11:48.587Z,16.03
2022-11-15T05:14:16.068Z,16.01
2022-11-15T05:16:43.116Z,15.96
2022-11-15T05:19:10.382Z,16.03
2022-11-15T05:21:37.409Z,16.02
2022-11-15T05:24:04.671Z,16.00
2022-11-15T05:26:31.843Z,16.00
2022-11-15T05:29:00.488Z,16.00
2022-11-15T05:31:28.533Z,15.99
2022-11-15T05:33:57.410Z,15.99
2022-11-15T05:36:39.255Z,15.98
2022-11-15T05:39:09.311Z,15.98
2022-11-15T05:41:54.110Z,15.99
2022-11-15T05:44:23.870Z,15.99
2022-11-15T05:46:54.988Z,15.99
2022-11-15T05:49:23.473Z,16.00
2022-11-15T05:51:51.381Z,16.01
2022-11-15T05:54:20.022Z,16.06
2022-11-15T05:56:47.374Z,16.09
2022-11-15T05:59:14.635Z,16.13
2022-11-15T06:01:41.972Z,16.14
2022-11-15T06:04:08.814Z,16.16
2022-11-15T06:06:35.719Z,16.16
2022-11-15T06:09:02.579Z,16.13
2022-11-15T06:11:29.488Z,16.13
2022-11-15T06:13:57.647Z,16.16
2022-11-15T06:16:24.571Z,16.18
2022-11-15T06:18:51.478Z,16.20
2022-11-15T06:21:18.389Z,16.21
2022-11-15T06:23:45.186Z,16.24
2022-11-15T06:26:12.127Z,16.26
2022-11-15T06:28:39.077Z,16.27
2022-11-15T06:31:08.797Z,16.28
2022-11-15T06:33:36.151Z,16.23
2022-11-15T06:36:11.880Z,16.31
2022-11-15T06:38:41.440Z,16.26
2022-11-15T06:41:10.665Z,16.25
2022-11-15T06:43:38.382Z,16.24
2022-11-15T06:46:06.750Z,16.30
2022-11-15T06:48:34.963Z,16.32
2022-11-15T06:51:03.836Z,16.32
2022-11-15T06:53:31.774Z,16.33
2022-11-15T06:56:03.999Z,16.34
2022-11-15T06:58:30.957Z,16.34
2022-11-15T07:01:15.885Z,16.36
2022-11-15T07:03:44.139Z,16.35
2022-11-15T07:06:11.721Z,16.30
2022-11-15T07:08:39.320Z,16.36
2022-11-15T07:11:08.801Z,16.37
2022-11-15T07:13:37.399Z,16.35
2022-11-15T07:16:06.919Z,16.34
2022-11-15T07:18:40.977Z,16.40
2022-11-15T07:21:11.008Z,16.43
2022-11-15T07:23:41.892Z,16.42
2022-11-15T07:26:09.594Z,16.26
2022-11-15T07:28:37.257Z,16.14
2022-11-15T07:31:05.548Z,16.16
2022-11-15T07:33:33.288Z,16.18
2022-11-15T07:36:06.114Z,16.22
2022-11-15T07:38:39.562Z,16.22
2022-11-15T07:41:09.317Z,16.24
2022-11-15T07:43:36.732Z,16.24
2022-11-15T07:46:10.623Z,16.26
2022-11-15T07:48:44.375Z,16.28
2022-11-15T07:51:16.396Z,16.30
2022-11-15T07:53:44.810Z,16.31
2022-11-15T07:56:13.046Z,16.33
2022-11-15T07:58:40.113Z,16.33
2022-11-15T08:01:08.808Z,16.35
2022-11-15T08:03:36.576Z,16.35
2022-11-15T08:06:04.211Z,16.36
2022-11-15T08:08:31.368Z,16.38
2022-11-15T08:11:02.012Z,16.38
2022-11-15T08:13:29.749Z,16.39
2022-11-15T08:16:01.410Z,16.38
2022-11-15T08:18:28.824Z,16.41
2022-11-15T08:21:00.934Z,16.39
2022-11-15T08:23:28.203Z,16.39
2022-11-15T08:26:00.929Z,16.41
2022-11-15T08:28:28.058Z,16.42
2022-11-15T08:30:55.095Z,16.42
2022-11-15T08:33:22.088Z,16.39
2022-11-15T08:35:49.960Z,16.39
2022-11-15T08:38:16.915Z,16.40
2022-11-15T08:40:43.909Z,16.39
2022-11-15T08:43:10.954Z,16.41
2022-11-15T08:45:37.857Z,16.39
2022-11-15T08:48:07.854Z,16.37
2022-11-15T08:50:34.752Z,16.39
2022-11-15T08:53:09.843Z,16.42
2022-11-15T08:55:40.863Z,16.43
2022-11-15T08:58:08.288Z,16.44
2022-11-15T09:00:35.288Z,16.44
2022-11-15T09:03:06.037Z,16.44
2022-11-15T09:05:33.583Z,16.45
2022-11-15T09:08:00.833Z,16.45
2022-11-15T09:10:29.206Z,16.44
2022-11-15T09:12:58.959Z,16.44
2022-11-15T09:15:26.554Z,16.45
2022-11-15T09:17:53.809Z,16.44
2022-11-15T09:20:20.804Z,16.45
2022-11-15T09:22:47.718Z,16.45
2022-11-15T09:25:15.051Z,16.44
2022-11-15T09:27:42.274Z,16.44
2022-11-15T09:30:09.627Z,16.42
2022-11-15T09:32:39.418Z,16.42
2022-11-15T09:35:07.452Z,16.41
2022-11-15T09:37:36.386Z,16.43
2022-11-15T09:40:05.467Z,16.41
2022-11-15T09:42:46.885Z,16.43
2022-11-15T09:45:42.400Z,16.41
2022-11-15T09:48:32.772Z,16.41
2022-11-15T09:51:00.408Z,16.39
2022-11-15T09:56:42.166Z,16.37
2022-11-15T09:59:21.275Z,16.35
2022-11-15T10:02:06.423Z,16.35
2022-11-15T10:04:51.468Z,16.28
2022-11-15T10:08:05.979Z,16.32
2022-11-15T10:10:39.328Z,16.31
2022-11-15T10:13:13.811Z,16.30
2022-11-15T10:15:47.178Z,16.21
2022-11-15T10:18:23.120Z,16.19
2022-11-15T10:20:54.001Z,16.23
2022-11-15T10:23:23.416Z,16.24
2022-11-15T10:25:54.608Z,16.25
2022-11-15T10:28:28.686Z,16.26
2022-11-15T10:30:59.622Z,16.25
2022-11-15T10:33:29.480Z,16.23
2022-11-15T10:36:14.655Z,16.24
2022-11-15T10:39:15.570Z,16.25
2022-11-15T10:41:43.885Z,16.25
2022-11-15T10:44:30.229Z,16.26
2022-11-15T10:46:57.713Z,16.21
2022-11-15T10:49:35.335Z,16.10
2022-11-15T10:52:23.709Z,16.09
2022-11-15T10:55:13.409Z,16.10
2022-11-15T10:57:41.850Z,16.10
2022-11-15T11:00:30.100Z,16.09
2022-11-15T11:02:57.270Z,16.08
2022-11-15T11:05:27.423Z,16.07
2022-11-15T11:08:17.370Z,16.05
2022-11-15T11:11:13.837Z,16.05
2022-11-15T11:13:41.775Z,16.05
2022-11-15T11:16:17.669Z,16.04
2022-11-15T11:19:15.666Z,16.04
2022-11-15T11:22:04.399Z,16.03
2022-11-15T11:25:08.580Z,16.03
2022-11-15T11:27:41.854Z,16.03
2022-11-15T11:30:20.141Z,16.06
2022-11-15T11:33:06.928Z,16.08
2022-11-15T11:36:05.137Z,16.08
2022-11-15T11:38:56.156Z,16.12
2022-11-15T11:41:48.286Z,16.12
2022-11-15T11:44:46.983Z,16.12
2022-11-15T11:47:21.771Z,16.16
2022-11-15T11:50:15.691Z,16.18
2022-11-15T11:53:04.244Z,16.21
2022-11-15T11:55:39.208Z,16.24
2022-11-15T11:58:45.295Z,16.30
2022-11-15T12:01:28.159Z,16.37
2022-11-15T12:04:03.857Z,16.34
2022-11-15T12:06:41.844Z,16.36
2022-11-15T12:09:37.270Z,16.36
2022-11-15T12:12:22.502Z,16.41
2022-11-15T12:14:51.999Z,16.44
2022-11-15T12:17:26.070Z,16.47
2022-11-15T12:19:57.639Z,16.49
2022-11-15T12:22:37.319Z,16.54
2022-11-15T12:25:08.232Z,16.59
2022-11-15T12:27:43.978Z,16.62
2022-11-15T12:30:17.073Z,16.66
2022-11-15T12:32:57.941Z,16.70
2022-11-15T12:35:39.158Z,16.73
2022-11-15T12:38:06.232Z,16.76
2022-11-15T12:40:36.950Z,16.81
2022-11-15T12:43:04.141Z,16.88
2022-11-15T12:45:41.068Z,16.95
2022-11-15T12:48:17.098Z,17.02
2022-11-15T12:50:54.800Z,17.09
2022-11-15T12:53:24.880Z,17.13
2022-11-15T12:56:10.575Z,17.21
2022-11-15T12:58:56.041Z,17.27
2022-11-15T13:01:32.440Z,17.28
2022-11-15T13:04:21.649Z,17.37
2022-11-15T13:06:50.034Z,17.41
2022-11-15T13:09:35.667Z,17.46
2022-11-15T13:12:03.288Z,17.52
2022-11-15T13:14:40.678Z,17.56
2022-11-15T13:17:43.829Z,17.61
2022-11-15T13:20:32.126Z,17.67
2022-11-15T13:23:04.213Z,17.71
2022-11-15T13:25:37.384Z,17.72
2022-11-15T13:28:17.836Z,17.77
2022-11-15T13:30:48.031Z,17.76
2022-11-15T13:33:19.467Z,17.77
2022-11-15T13:35:56.996Z,17.80
2022-11-15T13:38:31.156Z,17.88
2022-11-15T13:41:00.038Z,17.94
2022-11-15T13:43:29.614Z,17.98
2022-11-15T13:46:38.983Z,17.98
2022-11-15T13:49:09.828Z,17.96
2022-11-15T13:51:53.645Z,17.94
2022-11-15T13:54:45.627Z,17.94
2022-11-15T13:57:30.408Z,18.01
2022-11-15T14:00:07.198Z,18.07
2022-11-15T14:02:36.739Z,18.10
2022-11-15T14:05:18.164Z,18.15
2022-11-15T14:08:20.993Z,18.17
2022-11-15T14:10:48.261Z,18.23
2022-11-15T14:13:32.718Z,18.30
2022-11-15T14:16:18.652Z,18.16
2022-11-15T14:18:51.598Z,18.39
2022-11-15T14:21:20.221Z,17.73
2022-11-15T14:23:47.606Z,18.45
2022-11-15T14:26:30.138Z,18.31
2022-11-15T14:28:57.420Z,18.52
2022-11-15T14:31:24.611Z,18.53
2022-11-15T14:33:51.781Z,18.56
2022-11-15T14:36:21.450Z,18.55
2022-11-15T14:38:49.206Z,18.55
2022-11-15T14:41:24.690Z,18.40
2022-11-15T14:43:53.515Z,18.58
2022-11-15T14:46:20.581Z,18.62
2022-11-15T14:48:47.671Z,18.47
2022-11-15T14:51:17.980Z,18.48
2022-11-15T14:53:46.873Z,18.64
2022-11-15T14:56:14.560Z,18.66
2022-11-15T14:58:42.134Z,18.67
2022-11-15T15:01:27.469Z,18.65
2022-11-15T15:04:00.705Z,18.65
2022-11-15T15:06:28.424Z,18.65
2022-11-15T15:08:55.746Z,18.62
2022-11-15T15:11:25.690Z,18.62
2022-11-15T15:13:54.072Z,18.62
2022-11-15T15:16:21.319Z,18.61
2022-11-15T15:18:49.210Z,18.44
2022-11-15T15:21:33.744Z,18.57
2022-11-15T15:24:04.705Z,18.54
2022-11-15T15:26:35.024Z,18.49
2022-11-15T15:29:02.104Z,18.41
2022-11-15T15:31:29.321Z,18.41
2022-11-15T15:33:56.473Z,18.42
2022-11-15T15:36:23.569Z,18.38
2022-11-15T15:38:51.043Z,18.36
2022-11-15T15:41:18.496Z,18.21
2022-11-15T15:43:46.287Z,18.37
2022-11-15T15:46:17.736Z,18.38
2022-11-15T15:48:45.592Z,18.37
2022-11-15T15:51:18.766Z,18.38
2022-11-15T15:53:50.580Z,18.39
2022-11-15T15:56:17.769Z,18.35
2022-11-15T15:58:44.758Z,18.33
2022-11-15T16:01:11.918Z,18.14
2022-11-15T16:03:39.242Z,18.33
2022-11-15T16:06:06.874Z,18.32
2022-11-15T16:08:53.340Z,18.35
2022-11-15T16:11:21.258Z,18.35
2022-11-15T16:13:48.289Z,18.35
2022-11-15T16:16:15.559Z,18.34
2022-11-15T16:18:42.856Z,18.31
2022-11-15T16:21:10.572Z,18.15
2022-11-15T16:23:37.691Z,18.30
2022-11-15T16:26:25.566Z,18.35
2022-11-15T16:28:53.069Z,18.36
2022-11-15T16:31:22.587Z,18.37
2022-11-15T16:33:50.151Z,18.39
2022-11-15T16:36:31.323Z,18.39
2022-11-15T16:39:01.365Z,18.38
2022-11-15T16:41:29.050Z,18.36
2022-11-15T16:43:56.409Z,18.39
2022-11-15T16:46:26.472Z,18.39
2022-11-15T16:48:55.342Z,18.37
2022-11-15T16:51:23.166Z,18.20
2022-11-15T16:53:50.882Z,18.37
2022-11-15T16:56:31.000Z,18.39
2022-11-15T16:59:00.472Z,18.36
2022-11-15T17:01:47.295Z,18.35
2022-11-15T17:04:14.833Z,18.28
2022-11-15T17:06:44.017Z,18.00
2022-11-15T17:09:26.467Z,18.09
2022-11-15T17:11:54.512Z,18.04
2022-11-15T17:14:22.050Z,17.98
2022-11-15T17:16:49.386Z,17.90
2022-11-15T17:19:21.764Z,17.79
2022-11-15T17:21:52.557Z,18.07
2022-11-15T17:24:21.518Z,18.13
2022-11-15T17:26:48.879Z,18.20
2022-11-15T17:29:16.089Z,18.25
2022-11-15T17:31:44.937Z,18.29
2022-11-15T17:34:12.830Z,18.33
2022-11-15T17:36:40.557Z,18.34
2022-11-15T17:39:08.021Z,18.16
2022-11-15T17:41:35.442Z,18.25
2022-11-15T17:44:04.378Z,18.30
2022-11-15T17:46:34.180Z,18.38
2022-11-15T17:49:01.382Z,18.19
2022-11-15T17:51:28.633Z,18.29
2022-11-15T17:53:56.503Z,18.30
2022-11-15T17:56:26.481Z,18.29
2022-11-15T17:58:56.064Z,18.28
2022-11-15T18:01:25.842Z,18.26
2022-11-15T18:03:54.532Z,18.12
2022-11-15T18:06:23.122Z,18.28
2022-11-15T18:08:52.008Z,18.28
2022-11-15T18:11:27.323Z,18.15
2022-11-15T18:13:57.755Z,18.31
2022-11-15T18:16:26.792Z,18.32
2022-11-15T18:18:55.469Z,18.29
2022-11-15T18:21:27.296Z,18.29
2022-11-15T18:23:57.193Z,18.30
2022-11-15T18:26:27.801Z,18.29
2022-11-15T18:29:03.220Z,18.27
2022-11-15T18:31:31.640Z,18.29
2022-11-15T18:34:01.419Z,18.27
2022-11-15T18:36:31.252Z,18.11
2022-11-15T18:39:03.252Z,18.25
2022-11-15T18:41:31.198Z,18.24
2022-11-15T18:44:00.983Z,18.24
2022-11-15T18:46:32.194Z,18.23
2022-11-15T18:49:00.272Z,18.24
2022-11-15T18:51:30.456Z,18.23
2022-11-15T18:54:01.368Z,18.20
2022-11-15T18:56:30.916Z,18.16
2022-11-15T18:59:00.503Z,18.14
2022-11-15T19:01:35.230Z,18.11
2022-11-15T19:04:19.970Z,18.09
2022-11-15T19:06:49.530Z,18.06
2022-11-15T19:09:18.606Z,18.06
2022-11-15T19:11:47.506Z,18.08
2022-11-15T19:14:17.146Z,18.08
2022-11-15T19:16:50.744Z,18.05
2022-11-15T19:19:20.294Z,18.04
2022-11-15T19:21:47.599Z,18.09
2022-11-15T19:24:15.005Z,18.06
2022-11-15T19:26:42.136Z,18.07
2022-11-15T19:29:14.402Z,18.12
2022-11-15T19:31:43.651Z,17.96
2022-11-15T19:34:13.243Z,18.12
2022-11-15T19:36:42.801Z,18.12
2022-11-15T19:39:13.351Z,18.16
2022-11-15T19:41:42.982Z,18.02
2022-11-15T19:44:11.536Z,18.25
2022-11-15T19:46:44.381Z,18.26
2022-11-15T19:49:11.823Z,18.10
2022-11-15T19:51:41.994Z,18.30
2022-11-15T19:54:10.912Z,18.14
2022-11-15T19:56:40.352Z,18.33
2022-11-15T19:59:08.659Z,18.34
2022-11-15T20:01:40.713Z,18.41
2022-11-15T20:04:10.371Z,18.43
2022-11-15T20:06:42.997Z,18.51
2022-11-15T20:09:17.125Z,18.55
2022-11-15T20:11:44.901Z,18.59
2022-11-15T20:14:13.562Z,18.66
2022-11-15T20:16:42.739Z,18.65
2022-11-15T20:19:15.978Z,18.72
2022-11-15T20:21:44.709Z,18.72
2022-11-15T20:24:11.787Z,18.58
2022-11-15T20:26:39.800Z,18.74
2022-11-15T20:29:10.352Z,18.75
2022-11-15T20:31:37.688Z,18.76
2022-11-15T20:34:05.068Z,18.79
2022-11-15T20:36:32.396Z,18.80
2022-11-15T20:39:00.675Z,18.66
2022-11-15T20:41:28.153Z,18.82
2022-11-15T20:43:55.867Z,18.82
2022-11-15T20:46:23.237Z,18.82
2022-11-15T20:48:50.264Z,18.82
2022-11-15T20:51:19.038Z,18.82
2022-11-15T20:53:47.442Z,18.65
2022-11-15T20:56:18.995Z,18.83
2022-11-15T20:58:47.472Z,18.65
2022-11-15T21:01:16.722Z,18.81
2022-11-15T21:03:44.319Z,18.82
2022-11-15T21:06:12.820Z,18.83
2022-11-15T21:08:59.012Z,18.66
2022-11-15T21:11:45.202Z,18.83
2022-11-15T21:14:12.454Z,18.83
2022-11-15T21:16:41.536Z,18.81
2022-11-15T21:19:08.803Z,18.82
2022-11-15T21:21:37.592Z,18.65
2022-11-15T21:24:06.778Z,18.81
2022-11-15T21:26:34.467Z,18.65
2022-11-15T21:29:03.190Z,18.62
2022-11-15T21:31:30.541Z,18.65
2022-11-15T21:33:57.748Z,18.81
2022-11-15T21:36:25.691Z,18.76
2022-11-15T21:38:53.947Z,18.76
2022-11-15T21:41:21.121Z,18.73
2022-11-15T21:43:48.496Z,18.73
2022-11-15T21:46:15.634Z,18.72
2022-11-15T21:48:42.760Z,18.73
2022-11-15T21:51:12.034Z,18.57
2022-11-15T21:53:40.407Z,18.69
2022-11-15T21:56:08.089Z,18.68
2022-11-15T21:58:36.273Z,18.67
2022-11-15T22:01:23.019Z,18.66
2022-11-15T22:03:50.468Z,18.48
2022-11-15T22:06:19.011Z,18.49
2022-11-15T22:08:47.255Z,18.61
2022-11-15T22:11:15.586Z,18.39
2022-11-15T22:13:43.692Z,18.41
2022-11-15T22:16:11.229Z,18.36
2022-11-15T22:18:39.380Z,18.28
2022-11-15T22:21:13.737Z,18.22
2022-11-15T22:23:41.945Z,18.17
2022-11-15T22:26:11.971Z,17.96
2022-11-15T22:28:39.345Z,18.06
2022-11-15T22:31:06.325Z,18.01
2022-11-15T22:33:35.778Z,17.97
2022-11-15T22:36:04.565Z,17.91
2022-11-15T22:38:32.662Z,17.88
2022-11-15T22:41:00.635Z,17.68
2022-11-15T22:43:28.836Z,17.79
2022-11-15T22:45:57.779Z,17.61
2022-11-15T22:48:37.074Z,17.73
2022-11-15T22:51:05.397Z,17.69
2022-11-15T22:53:32.697Z,17.48
2022-11-15T22:56:02.262Z,17.44
2022-11-15T22:58:30.993Z,17.59
2022-11-15T23:01:01.320Z,17.56
2022-11-15T23:03:29.846Z,17.52
2022-11-15T23:06:02.507Z,17.49
2022-11-15T23:08:30.449Z,17.46
2022-11-15T23:11:19.214Z,17.43
2022-11-15T23:13:47.079Z,17.24
2022-11-15T23:16:23.789Z,17.37
2022-11-15T23:18:54.007Z,17.35
2022-11-15T23:21:45.348Z,17.31
2022-11-15T23:24:14.422Z,17.12
2022-11-15T23:26:42.422Z,17.26
2022-11-15T23:29:11.281Z,17.24
2022-11-15T23:32:02.052Z,17.22
2022-11-15T23:34:30.342Z,17.20
2022-11-15T23:36:58.037Z,17.15
2022-11-15T23:39:25.397Z,17.13
2022-11-15T23:41:52.865Z,16.95
2022-11-15T23:44:19.872Z,17.09
2022-11-15T23:46:46.865Z,17.06
2022-11-15T23:49:14.422Z,16.88
2022-11-15T23:51:41.525Z,17.02
2022-11-15T23:54:08.820Z,17.00
2022-11-15T23:56:36.335Z,16.96
2022-11-15T23:59:03.534Z,16.95
